Time,TemperatureF,DewpointF,PressureIn,WindDirection,WindDirectionDegrees,WindSpeedMPH,WindSpeedGustMPH,Humidity,HourlyPrecipIn,Conditions,Clouds,dailyrainin,SoftwareType,DateUTC
2017-07-21 00:02:00,72.6,69.5,29.93,SW,220,0.0,0.0,90,0.00,,,0.00,Wunderground v.1.15,2017-07-21 04:02:00,
2017-07-21 00:08:00,72.5,69.4,29.93,SW,220,0.0,0.0,90,0.00,,,0.00,Wunderground v.1.15,2017-07-21 04:08:00,
2017-07-21 00:13:00,72.4,69.3,29.93,SW,220,0.0,0.0,90,0.00,,,0.00,Wunderground v.1.15,2017-07-21 04:13:00,
2017-07-21 00:19:00,72.3,69.2,29.93,SW,220,0.0,0.0,90,0.00,,,0.00,Wunderground v.1.15,2017-07-21 04:19:00,
2017-07-21 00:24:00,72.2,69.1,29.93,SW,220,0.0,0.0,90,0.00,,,0.00,Wunderground v.1.15,2017-07-21 04:24:00,
2017-07-21 00:30:00,72.0,68.9,29.93,SW,220,0.0,0.0,90,0.00,,,0.00,Wunderground v.1.15,2017-07-21 04:30:00,
2017-07-21 00:35:00,71.9,68.8,29.93,SW,220,0.0,0.0,90,0.00,,,0.00,Wunderground v.1.15,2017-07-21 04:35:00,
2017-07-21 00:40:00,71.9,69.1,29.94,SW,220,0.0,0.0,91,0.00,,,0.00,Wunderground v.1.15,2017-07-21 04:40:00,
2017-07-21 00:46:00,71.8,69.0,29.94,SW,220,0.0,3.0,91,0.00,,,0.00,Wunderground v.1.15,2017-07-21 04:46:00,
2017-07-21 00:52:00,71.7,68.9,29.94,SW,220,0.0,0.0,91,0.00,,,0.00,Wunderground v.1.15,2017-07-21 04:52:00,
2017-07-21 00:57:00,71.7,68.9,29.94,West,265,1.0,4.0,91,0.00,,,0.00,Wunderground v.1.15,2017-07-21 04:57:00,
2017-07-21 01:03:00,71.9,69.1,29.94,WSW,250,2.0,7.0,91,0.00,,,0.00,Wunderground v.1.15,2017-07-21 05:03:00,
2017-07-21 01:09:00,72.7,69.9,29.94,WSW,237,4.0,9.0,91,0.00,,,0.00,Wunderground v.1.15,2017-07-21 05:09:00,
2017-07-21 01:14:00,73.4,70.0,29.94,SW,228,6.0,11.0,89,0.00,,,0.00,Wunderground v.1.15,2017-07-21 05:14:00,
2017-07-21 01:20:00,74.0,70.2,29.94,WSW,240,5.0,5.0,88,0.00,,,0.00,Wunderground v.1.15,2017-07-21 05:20:00,
2017-07-21 01:26:00,74.2,70.1,29.94,SW,231,4.0,5.0,87,0.00,,,0.00,Wunderground v.1.15,2017-07-21 05:26:00,
2017-07-21 01:32:00,74.2,69.7,29.94,SW,233,3.0,4.0,86,0.00,,,0.00,Wunderground v.1.15,2017-07-21 05:32:00,
2017-07-21 01:37:00,74.0,69.5,29.94,SW,232,2.0,5.0,86,0.00,,,0.00,Wunderground v.1.15,2017-07-21 05:37:00,
2017-07-21 01:43:00,74.0,69.5,29.93,SW,228,2.0,3.0,86,0.00,,,0.00,Wunderground v.1.15,2017-07-21 05:43:00,
2017-07-21 01:48:00,73.8,69.3,29.93,SW,226,1.0,3.0,86,0.00,,,0.00,Wunderground v.1.15,2017-07-21 05:48:00,
2017-07-21 01:54:00,73.6,69.2,29.93,SW,226,0.0,1.0,86,0.00,,,0.00,Wunderground v.1.15,2017-07-21 05:54:00,
2017-07-21 02:00:00,73.3,68.9,29.93,SW,226,0.0,0.0,86,0.00,,,0.00,Wunderground v.1.15,2017-07-21 06:00:00,
2017-07-21 02:06:00,72.9,68.8,29.93,SW,226,0.0,2.0,87,0.00,,,0.00,Wunderground v.1.15,2017-07-21 06:06:00,
2017-07-21 02:11:00,72.5,68.4,29.93,SW,226,0.0,0.0,87,0.00,,,0.00,Wunderground v.1.15,2017-07-21 06:11:00,
2017-07-21 02:17:00,72.2,68.4,29.93,SW,226,1.0,3.0,88,0.00,,,0.00,Wunderground v.1.15,2017-07-21 06:17:00,
2017-07-21 02:22:00,71.9,68.5,29.92,SW,226,1.0,3.0,89,0.00,,,0.00,Wunderground v.1.15,2017-07-21 06:22:00,
2017-07-21 02:28:00,71.7,68.3,29.92,SW,224,1.0,3.0,89,0.00,,,0.00,Wunderground v.1.15,2017-07-21 06:28:00,
2017-07-21 02:34:00,71.5,68.1,29.92,SW,224,1.0,2.0,89,0.00,,,0.00,Wunderground v.1.15,2017-07-21 06:34:00,
2017-07-21 02:40:00,71.2,67.8,29.92,SW,224,0.0,0.0,89,0.00,,,0.00,Wunderground v.1.15,2017-07-21 06:40:00,
2017-07-21 02:46:00,71.0,67.9,29.92,SW,224,0.0,2.0,90,0.00,,,0.00,Wunderground v.1.15,2017-07-21 06:46:00,
2017-07-21 02:51:00,70.8,67.7,29.92,SW,224,1.0,3.0,90,0.00,,,0.00,Wunderground v.1.15,2017-07-21 06:51:00,
2017-07-21 02:57:00,70.5,67.4,29.92,SW,223,2.0,4.0,90,0.00,,,0.00,Wunderground v.1.15,2017-07-21 06:57:00,
2017-07-21 03:02:00,70.5,67.7,29.92,SW,225,1.0,2.0,91,0.00,,,0.00,Wunderground v.1.15,2017-07-21 07:02:00,
2017-07-21 03:08:00,70.3,67.5,29.91,SW,225,1.0,4.0,91,0.00,,,0.00,Wunderground v.1.15,2017-07-21 07:08:00,
2017-07-21 03:14:00,70.2,67.4,29.91,SW,225,1.0,3.0,91,0.00,,,0.00,Wunderground v.1.15,2017-07-21 07:14:00,
2017-07-21 03:20:00,70.1,67.3,29.91,SW,224,2.0,2.0,91,0.00,,,0.00,Wunderground v.1.15,2017-07-21 07:20:00,
2017-07-21 03:26:00,69.9,67.2,29.91,SW,224,2.0,3.0,91,0.00,,,0.00,Wunderground v.1.15,2017-07-21 07:26:00,
2017-07-21 03:31:00,69.7,67.0,29.91,SW,224,1.0,1.0,91,0.00,,,0.00,Wunderground v.1.15,2017-07-21 07:31:00,
2017-07-21 03:37:00,69.4,66.7,29.91,SW,224,0.0,1.0,91,0.00,,,0.00,Wunderground v.1.15,2017-07-21 07:37:00,
2017-07-21 03:42:00,69.1,66.7,29.90,SW,224,0.0,0.0,92,0.00,,,0.00,Wunderground v.1.15,2017-07-21 07:42:00,
2017-07-21 03:48:00,69.0,66.6,29.90,SW,220,0.0,4.0,92,0.00,,,0.00,Wunderground v.1.15,2017-07-21 07:48:00,
2017-07-21 03:53:00,69.2,66.8,29.90,SW,219,1.0,4.0,92,0.00,,,0.00,Wunderground v.1.15,2017-07-21 07:53:00,
2017-07-21 03:59:00,69.6,67.5,29.90,SW,223,3.0,6.0,93,0.00,,,0.00,Wunderground v.1.15,2017-07-21 07:59:00,
2017-07-21 04:05:00,69.8,67.7,29.90,SW,220,5.0,6.0,93,0.00,,,0.00,Wunderground v.1.15,2017-07-21 08:05:00,
2017-07-21 04:10:00,70.0,67.9,29.90,SW,235,4.0,4.0,93,0.00,,,0.00,Wunderground v.1.15,2017-07-21 08:10:00,
2017-07-21 04:16:00,69.9,67.5,29.90,SW,234,2.0,4.0,92,0.00,,,0.00,Wunderground v.1.15,2017-07-21 08:16:00,
2017-07-21 04:21:00,69.7,67.3,29.90,SW,234,0.0,0.0,92,0.00,,,0.00,Wunderground v.1.15,2017-07-21 08:21:00,
2017-07-21 04:27:00,69.5,67.1,29.90,SW,234,0.0,0.0,92,0.00,,,0.00,Wunderground v.1.15,2017-07-21 08:27:00,
2017-07-21 04:32:00,69.4,67.0,29.90,SW,234,0.0,0.0,92,0.00,,,0.00,Wunderground v.1.15,2017-07-21 08:32:00,
2017-07-21 04:38:00,69.4,67.0,29.90,SW,234,0.0,0.0,92,0.00,,,0.00,Wunderground v.1.15,2017-07-21 08:38:00,
2017-07-21 04:43:00,69.2,66.8,29.90,SW,234,0.0,0.0,92,0.00,,,0.00,Wunderground v.1.15,2017-07-21 08:43:00,
2017-07-21 04:50:00,68.9,66.5,29.90,SW,234,0.0,0.0,92,0.00,,,0.00,Wunderground v.1.15,2017-07-21 08:50:00,
2017-07-21 04:56:00,69.2,67.1,29.90,SW,234,0.0,0.0,93,0.00,,,0.00,Wunderground v.1.15,2017-07-21 08:56:00,
2017-07-21 05:01:00,68.9,66.5,29.91,SW,232,0.0,0.0,92,0.00,,,0.00,Wunderground v.1.15,2017-07-21 09:01:00,
2017-07-21 05:07:00,68.8,66.7,29.90,SW,232,0.0,0.0,93,0.00,,,0.00,Wunderground v.1.15,2017-07-21 09:07:00,
2017-07-21 05:13:00,68.8,66.7,29.90,SW,232,0.0,0.0,93,0.00,,,0.00,Wunderground v.1.15,2017-07-21 09:13:00,
2017-07-21 05:19:00,68.6,66.2,29.91,SW,232,0.0,0.0,92,0.00,,,0.00,Wunderground v.1.15,2017-07-21 09:19:00,
2017-07-21 05:25:00,68.5,66.4,29.91,SW,232,0.0,0.0,93,0.00,,,0.00,Wunderground v.1.15,2017-07-21 09:25:00,
2017-07-21 05:30:00,68.5,66.4,29.91,SW,232,0.0,0.0,93,0.00,,,0.00,Wunderground v.1.15,2017-07-21 09:30:00,
2017-07-21 05:36:00,68.5,66.4,29.91,SW,232,0.0,0.0,93,0.00,,,0.00,Wunderground v.1.15,2017-07-21 09:36:00,
2017-07-21 05:41:00,68.4,66.3,29.91,SW,232,0.0,0.0,93,0.00,,,0.00,Wunderground v.1.15,2017-07-21 09:41:00,
2017-07-21 05:47:00,68.4,66.3,29.91,SW,232,0.0,0.0,93,0.00,,,0.00,Wunderground v.1.15,2017-07-21 09:47:00,
2017-07-21 05:52:00,68.3,66.2,29.91,SW,232,0.0,0.0,93,0.00,,,0.00,Wunderground v.1.15,2017-07-21 09:52:00,
2017-07-21 05:58:00,68.4,66.3,29.91,SW,232,0.0,0.0,93,0.00,,,0.00,Wunderground v.1.15,2017-07-21 09:58:00,
2017-07-21 06:03:00,68.3,66.2,29.91,SW,232,0.0,0.0,93,0.00,,,0.00,Wunderground v.1.15,2017-07-21 10:03:00,
2017-07-21 06:09:00,68.2,66.1,29.92,SW,232,0.0,0.0,93,0.00,,,0.00,Wunderground v.1.15,2017-07-21 10:09:00,
2017-07-21 06:15:00,68.2,66.1,29.92,SW,232,0.0,0.0,93,0.00,,,0.00,Wunderground v.1.15,2017-07-21 10:15:00,
2017-07-21 06:20:00,68.5,66.7,29.92,SW,232,0.0,0.0,94,0.00,,,0.00,Wunderground v.1.15,2017-07-21 10:20:00,
2017-07-21 06:26:00,68.7,66.6,29.92,SW,232,0.0,0.0,93,0.00,,,0.00,Wunderground v.1.15,2017-07-21 10:26:00,
2017-07-21 06:31:00,68.7,66.6,29.92,SW,232,0.0,0.0,93,0.00,,,0.00,Wunderground v.1.15,2017-07-21 10:31:00,
2017-07-21 06:37:00,68.7,66.6,29.92,SW,232,0.0,0.0,93,0.00,,,0.00,Wunderground v.1.15,2017-07-21 10:37:00,
2017-07-21 06:42:00,69.0,67.2,29.92,SW,232,0.0,0.0,94,0.00,,,0.00,Wunderground v.1.15,2017-07-21 10:42:00,
2017-07-21 06:48:00,69.3,67.5,29.93,SW,232,0.0,0.0,94,0.00,,,0.00,Wunderground v.1.15,2017-07-21 10:48:00,
2017-07-21 06:54:00,69.6,67.8,29.93,SW,232,0.0,0.0,94,0.00,,,0.00,Wunderground v.1.15,2017-07-21 10:54:00,
2017-07-21 07:00:00,69.7,67.9,29.92,SW,232,0.0,0.0,94,0.00,,,0.00,Wunderground v.1.15,2017-07-21 11:00:00,
2017-07-21 07:06:00,69.8,68.0,29.93,WSW,252,0.0,2.0,94,0.00,,,0.00,Wunderground v.1.15,2017-07-21 11:06:00,
2017-07-21 07:11:00,70.1,68.3,29.93,WSW,251,0.0,0.0,94,0.00,,,0.00,Wunderground v.1.15,2017-07-21 11:11:00,
2017-07-21 07:17:00,70.3,68.5,29.93,WSW,251,0.0,0.0,94,0.00,,,0.00,Wunderground v.1.15,2017-07-21 11:17:00,
2017-07-21 07:22:00,70.2,68.4,29.93,WSW,251,0.0,0.0,94,0.00,,,0.00,Wunderground v.1.15,2017-07-21 11:22:00,
2017-07-21 07:28:00,70.4,68.6,29.93,WSW,251,0.0,0.0,94,0.00,,,0.00,Wunderground v.1.15,2017-07-21 11:28:00,
2017-07-21 07:33:00,70.6,68.8,29.93,WSW,251,0.0,0.0,94,0.00,,,0.00,Wunderground v.1.15,2017-07-21 11:33:00,
2017-07-21 07:40:00,70.7,68.9,29.94,WSW,251,0.0,0.0,94,0.00,,,0.00,Wunderground v.1.15,2017-07-21 11:40:00,
2017-07-21 07:46:00,70.9,69.1,29.94,WSW,248,0.0,0.0,94,0.00,,,0.00,Wunderground v.1.15,2017-07-21 11:46:00,
2017-07-21 07:51:00,71.2,69.4,29.94,WSW,248,0.0,0.0,94,0.00,,,0.00,Wunderground v.1.15,2017-07-21 11:51:00,
2017-07-21 07:57:00,71.4,69.6,29.94,WSW,248,0.0,0.0,94,0.00,,,0.00,Wunderground v.1.15,2017-07-21 11:57:00,
2017-07-21 08:02:00,71.5,69.7,29.94,WSW,248,0.0,0.0,94,0.00,,,0.00,Wunderground v.1.15,2017-07-21 12:02:00,
2017-07-21 08:07:00,71.7,69.9,29.94,WSW,248,0.0,0.0,94,0.00,,,0.00,Wunderground v.1.15,2017-07-21 12:07:00,
2017-07-21 08:13:00,71.9,70.1,29.94,WSW,248,0.0,0.0,94,0.00,,,0.00,Wunderground v.1.15,2017-07-21 12:13:00,
2017-07-21 08:18:00,72.1,70.0,29.95,WSW,248,0.0,0.0,93,0.00,,,0.00,Wunderground v.1.15,2017-07-21 12:18:00,
2017-07-21 08:24:00,72.4,70.6,29.95,WSW,248,0.0,0.0,94,0.00,,,0.00,Wunderground v.1.15,2017-07-21 12:24:00,
2017-07-21 08:30:00,72.6,70.5,29.95,WSW,248,0.0,0.0,93,0.00,,,0.00,Wunderground v.1.15,2017-07-21 12:30:00,
2017-07-21 08:36:00,73.0,70.9,29.95,WSW,248,0.0,0.0,93,0.00,,,0.00,Wunderground v.1.15,2017-07-21 12:36:00,
2017-07-21 08:41:00,73.3,71.2,29.94,SW,215,0.0,2.0,93,0.00,,,0.00,Wunderground v.1.15,2017-07-21 12:41:00,
2017-07-21 08:47:00,73.6,71.4,29.95,SW,220,0.0,3.0,93,0.00,,,0.00,Wunderground v.1.15,2017-07-21 12:47:00,
2017-07-21 08:52:00,74.3,71.5,29.94,SW,220,1.0,1.0,91,0.00,,,0.00,Wunderground v.1.15,2017-07-21 12:52:00,
2017-07-21 08:58:00,75.3,71.8,29.94,SW,220,0.0,1.0,89,0.00,,,0.00,Wunderground v.1.15,2017-07-21 12:58:00,
2017-07-21 09:04:00,75.7,71.9,29.94,SW,220,0.0,0.0,88,0.00,,,0.00,Wunderground v.1.15,2017-07-21 13:04:00,
2017-07-21 09:10:00,75.7,71.6,29.94,SW,220,0.0,0.0,87,0.00,,,0.00,Wunderground v.1.15,2017-07-21 13:10:00,
2017-07-21 09:16:00,75.9,71.8,29.94,SW,220,0.0,0.0,87,0.00,,,0.00,Wunderground v.1.15,2017-07-21 13:16:00,
2017-07-21 09:21:00,76.4,72.2,29.94,SW,220,0.0,0.0,87,0.00,,,0.00,Wunderground v.1.15,2017-07-21 13:21:00,
2017-07-21 09:27:00,77.0,72.1,29.94,SW,220,0.0,0.0,85,0.00,,,0.00,Wunderground v.1.15,2017-07-21 13:27:00,
2017-07-21 09:32:00,77.4,72.2,29.95,SW,221,0.0,1.0,84,0.00,,,0.00,Wunderground v.1.15,2017-07-21 13:32:00,
2017-07-21 09:38:00,77.3,72.1,29.94,SW,220,0.0,1.0,84,0.00,,,0.00,Wunderground v.1.15,2017-07-21 13:38:00,
2017-07-21 09:43:00,77.8,72.6,29.94,SW,220,0.0,0.0,84,0.00,,,0.00,Wunderground v.1.15,2017-07-21 13:43:00,
2017-07-21 09:49:00,78.4,73.2,29.94,SW,220,0.0,1.0,84,0.00,,,0.00,Wunderground v.1.15,2017-07-21 13:49:00,
2017-07-21 09:55:00,80.3,74.3,29.94,SW,219,0.0,0.0,82,0.00,,,0.00,Wunderground v.1.15,2017-07-21 13:55:00,
2017-07-21 10:00:00,81.2,74.1,29.94,SW,219,0.0,0.0,79,0.00,,,0.00,Wunderground v.1.15,2017-07-21 14:00:00,
2017-07-21 10:06:00,80.0,73.3,29.94,SW,218,0.0,2.0,80,0.00,,,0.00,Wunderground v.1.15,2017-07-21 14:06:00,
2017-07-21 10:11:00,80.5,73.8,29.94,SW,218,0.0,0.0,80,0.00,,,0.00,Wunderground v.1.15,2017-07-21 14:11:00,
2017-07-21 10:17:00,80.1,73.4,29.94,SW,219,0.0,0.0,80,0.00,,,0.00,Wunderground v.1.15,2017-07-21 14:17:00,
2017-07-21 10:22:00,80.1,72.6,29.94,SW,216,0.0,0.0,78,0.00,,,0.00,Wunderground v.1.15,2017-07-21 14:22:00,
2017-07-21 10:28:00,80.8,73.7,29.94,SSW,206,0.0,2.0,79,0.00,,,0.00,Wunderground v.1.15,2017-07-21 14:28:00,
2017-07-21 10:33:00,81.4,73.9,29.93,East,94,1.0,3.0,78,0.00,,,0.00,Wunderground v.1.15,2017-07-21 14:33:00,
2017-07-21 10:39:00,81.1,73.6,29.93,East,94,1.0,3.0,78,0.00,,,0.00,Wunderground v.1.15,2017-07-21 14:39:00,
2017-07-21 10:44:00,81.0,73.1,29.93,East,89,1.0,3.0,77,0.00,,,0.00,Wunderground v.1.15,2017-07-21 14:44:00,
2017-07-21 10:50:00,81.4,73.1,29.93,ESE,108,1.0,1.0,76,0.00,,,0.00,Wunderground v.1.15,2017-07-21 14:50:00,
2017-07-21 10:55:00,82.2,73.9,29.93,ESE,109,1.0,1.0,76,0.00,,,0.00,Wunderground v.1.15,2017-07-21 14:55:00,
2017-07-21 11:01:00,83.3,74.5,29.93,South,176,1.0,2.0,75,0.00,,,0.00,Wunderground v.1.15,2017-07-21 15:01:00,
2017-07-21 11:07:00,83.8,73.8,29.93,SE,146,3.0,5.0,72,0.00,,,0.00,Wunderground v.1.15,2017-07-21 15:07:00,
2017-07-21 11:12:00,83.6,74.0,29.93,SW,232,2.0,4.0,73,0.00,,,0.00,Wunderground v.1.15,2017-07-21 15:12:00,
2017-07-21 11:18:00,83.4,74.6,29.92,South,191,1.0,4.0,75,0.00,,,0.00,Wunderground v.1.15,2017-07-21 15:18:00,
2017-07-21 11:23:00,84.9,74.9,29.92,SE,145,2.0,4.0,72,0.00,,,0.00,Wunderground v.1.15,2017-07-21 15:23:00,
2017-07-21 11:29:00,83.6,74.0,29.92,SE,125,2.0,4.0,73,0.00,,,0.00,Wunderground v.1.15,2017-07-21 15:29:00,
2017-07-21 11:34:00,83.7,74.5,29.93,SE,125,1.0,2.0,74,0.00,,,0.00,Wunderground v.1.15,2017-07-21 15:34:00,
2017-07-21 11:40:00,82.9,74.6,29.92,North,360,1.0,1.0,76,0.00,,,0.00,Wunderground v.1.15,2017-07-21 15:40:00,
2017-07-21 11:46:00,82.2,73.5,29.92,ENE,72,3.0,5.0,75,0.00,,,0.00,Wunderground v.1.15,2017-07-21 15:46:00,
2017-07-21 11:51:00,83.6,74.0,29.92,ESE,120,3.0,3.0,73,0.00,,,0.00,Wunderground v.1.15,2017-07-21 15:51:00,
2017-07-21 11:57:00,83.8,74.6,29.92,ESE,108,1.0,3.0,74,0.00,,,0.00,Wunderground v.1.15,2017-07-21 15:57:00,
2017-07-21 12:02:00,84.1,72.8,29.92,ESE,117,0.0,0.0,69,0.00,,,0.00,Wunderground v.1.15,2017-07-21 16:02:00,
2017-07-21 12:08:00,84.5,74.5,29.92,ESE,116,0.0,2.0,72,0.00,,,0.00,Wunderground v.1.15,2017-07-21 16:08:00,
2017-07-21 12:13:00,83.9,73.5,29.92,ESE,116,0.0,1.0,71,0.00,,,0.00,Wunderground v.1.15,2017-07-21 16:13:00,
2017-07-21 12:19:00,84.0,74.4,29.92,ESE,116,0.0,1.0,73,0.00,,,0.00,Wunderground v.1.15,2017-07-21 16:19:00,
2017-07-21 12:24:00,84.2,74.6,29.92,ESE,116,0.0,2.0,73,0.00,,,0.00,Wunderground v.1.15,2017-07-21 16:24:00,
2017-07-21 12:30:00,83.9,73.9,29.92,ESE,115,0.0,0.0,72,0.00,,,0.00,Wunderground v.1.15,2017-07-21 16:30:00,
2017-07-21 12:35:00,84.5,74.1,29.92,WNW,296,1.0,5.0,71,0.00,,,0.00,Wunderground v.1.15,2017-07-21 16:35:00,
2017-07-21 12:41:00,84.7,73.0,29.92,NW,316,3.0,5.0,68,0.00,,,0.00,Wunderground v.1.15,2017-07-21 16:41:00,
2017-07-21 12:47:00,85.5,71.9,29.92,WNW,298,4.0,7.0,64,0.00,,,0.00,Wunderground v.1.15,2017-07-21 16:47:00,
2017-07-21 12:52:00,85.8,73.6,29.92,WNW,301,4.0,4.0,67,0.00,,,0.00,Wunderground v.1.15,2017-07-21 16:52:00,
2017-07-21 12:58:00,85.7,72.6,29.92,WSW,253,3.0,5.0,65,0.00,,,0.00,Wunderground v.1.15,2017-07-21 16:58:00,
2017-07-21 13:03:00,87.0,73.3,29.92,NNW,347,3.0,6.0,64,0.00,,,0.00,Wunderground v.1.15,2017-07-21 17:03:00,
2017-07-21 13:09:00,85.4,72.7,29.91,North,10,3.0,6.0,66,0.00,,,0.00,Wunderground v.1.15,2017-07-21 17:09:00,
2017-07-21 13:14:00,85.5,71.5,29.91,WNW,295,3.0,4.0,63,0.00,,,0.00,Wunderground v.1.15,2017-07-21 17:14:00,
2017-07-21 13:20:00,86.1,72.5,29.91,West,266,2.0,2.0,64,0.00,,,0.00,Wunderground v.1.15,2017-07-21 17:20:00,
2017-07-21 13:25:00,87.0,72.9,29.90,WSW,243,1.0,7.0,63,0.00,,,0.00,Wunderground v.1.15,2017-07-21 17:25:00,
2017-07-21 13:30:00,87.3,73.6,29.90,West,265,2.0,3.0,64,0.00,,,0.00,Wunderground v.1.15,2017-07-21 17:30:00,
2017-07-21 13:36:00,87.6,72.0,29.90,WSW,238,4.0,8.0,60,0.00,,,0.00,Wunderground v.1.15,2017-07-21 17:36:00,
2017-07-21 13:42:00,87.7,72.6,29.91,WSW,258,4.0,9.0,61,0.00,,,0.00,Wunderground v.1.15,2017-07-21 17:42:00,
2017-07-21 13:47:00,87.2,73.5,29.91,WSW,253,5.0,9.0,64,0.00,,,0.00,Wunderground v.1.15,2017-07-21 17:47:00,
2017-07-21 13:53:00,86.8,71.7,29.91,WSW,244,6.0,9.0,61,0.00,,,0.00,Wunderground v.1.15,2017-07-21 17:53:00,
2017-07-21 13:59:00,88.0,70.3,29.90,SW,225,5.0,12.0,56,0.00,,,0.00,Wunderground v.1.15,2017-07-21 17:59:00,
2017-07-21 14:04:00,88.7,72.0,29.90,WSW,241,5.0,10.0,58,0.00,,,0.00,Wunderground v.1.15,2017-07-21 18:04:00,
2017-07-21 14:10:00,87.6,72.0,29.90,WNW,289,4.0,6.0,60,0.00,,,0.00,Wunderground v.1.15,2017-07-21 18:10:00,
2017-07-21 14:16:00,87.3,71.7,29.90,WNW,302,4.0,7.0,60,0.00,,,0.00,Wunderground v.1.15,2017-07-21 18:16:00,
2017-07-21 14:21:00,86.9,72.8,29.90,NNW,339,4.0,4.0,63,0.00,,,0.00,Wunderground v.1.15,2017-07-21 18:21:00,
2017-07-21 14:27:00,87.2,72.6,29.90,WNW,292,3.0,8.0,62,0.00,,,0.00,Wunderground v.1.15,2017-07-21 18:27:00,
2017-07-21 14:33:00,87.2,72.6,29.90,WNW,295,2.0,4.0,62,0.00,,,0.00,Wunderground v.1.15,2017-07-21 18:33:00,
2017-07-21 14:38:00,87.2,71.6,29.91,West,263,4.0,9.0,60,0.00,,,0.00,Wunderground v.1.15,2017-07-21 18:38:00,
2017-07-21 14:44:00,86.7,71.2,29.91,West,265,6.0,8.0,60,0.00,,,0.00,Wunderground v.1.15,2017-07-21 18:44:00,
2017-07-21 14:50:00,86.6,72.0,29.91,West,266,5.0,5.0,62,0.00,,,0.00,Wunderground v.1.15,2017-07-21 18:50:00,
2017-07-21 15:01:00,87.4,71.8,29.91,West,281,5.0,10.0,60,0.00,,,0.00,Wunderground v.1.15,2017-07-21 19:01:00,
2017-07-21 15:07:00,87.4,72.3,29.90,WNW,283,5.0,10.0,61,0.00,,,0.00,Wunderground v.1.15,2017-07-21 19:07:00,
2017-07-21 15:12:00,87.1,72.5,29.90,NW,317,4.0,8.0,62,0.00,,,0.00,Wunderground v.1.15,2017-07-21 19:12:00,
2017-07-21 15:18:00,86.9,73.7,29.90,NNW,338,5.0,11.0,65,0.00,,,0.00,Wunderground v.1.15,2017-07-21 19:18:00,
2017-07-21 15:23:00,86.8,70.8,29.90,WNW,301,7.0,10.0,59,0.00,,,0.00,Wunderground v.1.15,2017-07-21 19:23:00,
2017-07-21 15:29:00,87.0,71.4,29.90,WNW,282,5.0,10.0,60,0.00,,,0.00,Wunderground v.1.15,2017-07-21 19:29:00,
2017-07-21 15:34:00,86.5,71.9,29.90,WNW,299,3.0,6.0,62,0.00,,,0.00,Wunderground v.1.15,2017-07-21 19:34:00,
2017-07-21 15:40:00,86.1,72.0,29.89,NNE,24,3.0,4.0,63,0.00,,,0.00,Wunderground v.1.15,2017-07-21 19:40:00,
2017-07-21 15:46:00,85.9,73.2,29.89,NNW,337,4.0,9.0,66,0.00,,,0.00,Wunderground v.1.15,2017-07-21 19:46:00,
2017-07-21 15:51:00,85.7,70.7,29.89,North,351,4.0,4.0,61,0.00,,,0.00,Wunderground v.1.15,2017-07-21 19:51:00,
2017-07-21 15:57:00,85.9,71.8,29.89,North,350,3.0,4.0,63,0.00,,,0.00,Wunderground v.1.15,2017-07-21 19:57:00,
2017-07-21 16:02:00,85.8,71.7,29.89,NNW,330,2.0,3.0,63,0.00,,,0.00,Wunderground v.1.15,2017-07-21 20:02:00,
2017-07-21 16:08:00,85.7,72.1,29.89,NW,322,3.0,5.0,64,0.00,,,0.00,Wunderground v.1.15,2017-07-21 20:08:00,
2017-07-21 16:13:00,85.6,71.1,29.89,NW,305,4.0,8.0,62,0.00,,,0.00,Wunderground v.1.15,2017-07-21 20:13:00,
2017-07-21 16:19:00,85.7,72.1,29.89,NW,314,4.0,8.0,64,0.00,,,0.00,Wunderground v.1.15,2017-07-21 20:19:00,
2017-07-21 16:24:00,85.8,72.7,29.89,WNW,303,2.0,5.0,65,0.00,,,0.00,Wunderground v.1.15,2017-07-21 20:24:00,
2017-07-21 16:30:00,85.5,71.9,29.89,WNW,296,2.0,4.0,64,0.00,,,0.00,Wunderground v.1.15,2017-07-21 20:30:00,
2017-07-21 16:35:00,85.1,72.9,29.89,WNW,286,3.0,7.0,67,0.00,,,0.00,Wunderground v.1.15,2017-07-21 20:35:00,
2017-07-21 16:41:00,84.9,71.8,29.89,WNW,286,2.0,2.0,65,0.00,,,0.00,Wunderground v.1.15,2017-07-21 20:41:00,
2017-07-21 16:46:00,85.4,70.9,29.89,WNW,287,2.0,3.0,62,0.00,,,0.00,Wunderground v.1.15,2017-07-21 20:46:00,
2017-07-21 16:52:00,85.4,71.8,29.89,WNW,287,2.0,4.0,64,0.00,,,0.00,Wunderground v.1.15,2017-07-21 20:52:00,
2017-07-21 16:57:00,85.5,71.9,29.88,WNW,287,2.0,4.0,64,0.00,,,0.00,Wunderground v.1.15,2017-07-21 20:57:00,
2017-07-21 17:03:00,85.2,71.6,29.88,WNW,289,2.0,3.0,64,0.00,,,0.00,Wunderground v.1.15,2017-07-21 21:03:00,
2017-07-21 17:09:00,85.0,72.8,29.87,WNW,289,3.0,3.0,67,0.00,,,0.00,Wunderground v.1.15,2017-07-21 21:09:00,
2017-07-21 17:14:00,85.2,72.6,29.87,WNW,291,2.0,3.0,66,0.00,,,0.00,Wunderground v.1.15,2017-07-21 21:14:00,
2017-07-21 17:20:00,85.2,72.6,29.87,WNW,290,2.0,2.0,66,0.00,,,0.00,Wunderground v.1.15,2017-07-21 21:20:00,
2017-07-21 17:26:00,85.2,71.6,29.88,WNW,290,2.0,3.0,64,0.00,,,0.00,Wunderground v.1.15,2017-07-21 21:26:00,
2017-07-21 17:32:00,85.2,71.6,29.87,WNW,291,1.0,1.0,64,0.00,,,0.00,Wunderground v.1.15,2017-07-21 21:32:00,
2017-07-21 17:38:00,85.2,73.0,29.87,North,10,1.0,4.0,67,0.00,,,0.00,Wunderground v.1.15,2017-07-21 21:38:00,
2017-07-21 17:43:00,85.2,70.7,29.87,North,360,2.0,2.0,62,0.00,,,0.00,Wunderground v.1.15,2017-07-21 21:43:00,
2017-07-21 17:49:00,85.2,70.7,29.88,North,360,1.0,3.0,62,0.00,,,0.00,Wunderground v.1.15,2017-07-21 21:49:00,
2017-07-21 17:54:00,85.2,72.6,29.88,North,360,0.0,1.0,66,0.00,,,0.00,Wunderground v.1.15,2017-07-21 21:54:00,
2017-07-21 18:00:00,85.0,71.5,29.88,North,360,0.0,0.0,64,0.00,,,0.00,Wunderground v.1.15,2017-07-21 22:00:00,
2017-07-21 18:05:00,84.7,73.0,29.88,North,360,1.0,1.0,68,0.00,,,0.00,Wunderground v.1.15,2017-07-21 22:05:00,
2017-07-21 18:10:00,84.7,73.0,29.88,North,360,0.0,0.0,68,0.00,,,0.00,Wunderground v.1.15,2017-07-21 22:10:00,
2017-07-21 18:16:00,84.8,73.1,29.88,North,360,0.0,0.0,68,0.00,,,0.00,Wunderground v.1.15,2017-07-21 22:16:00,
2017-07-21 18:21:00,84.7,71.6,29.88,North,360,0.0,0.0,65,0.00,,,0.00,Wunderground v.1.15,2017-07-21 22:21:00,
2017-07-21 18:27:00,84.8,71.7,29.88,North,360,0.0,0.0,65,0.00,,,0.00,Wunderground v.1.15,2017-07-21 22:27:00,
2017-07-21 18:33:00,85.3,71.3,29.87,North,360,0.0,0.0,63,0.00,,,0.00,Wunderground v.1.15,2017-07-21 22:33:00,
2017-07-21 18:38:00,84.8,72.6,29.88,WNW,289,1.0,4.0,67,0.00,,,0.00,Wunderground v.1.15,2017-07-21 22:38:00,
2017-07-21 18:43:00,84.1,71.1,29.87,WNW,289,1.0,3.0,65,0.00,,,0.00,Wunderground v.1.15,2017-07-21 22:43:00,
2017-07-21 18:49:00,83.6,71.5,29.88,WNW,289,2.0,3.0,67,0.00,,,0.00,Wunderground v.1.15,2017-07-21 22:49:00,
2017-07-21 18:54:00,83.3,72.9,29.88,WNW,289,1.0,1.0,71,0.00,,,0.00,Wunderground v.1.15,2017-07-21 22:54:00,
2017-07-21 19:00:00,82.9,73.8,29.88,WNW,289,0.0,0.0,74,0.00,,,0.00,Wunderground v.1.15,2017-07-21 23:00:00,
2017-07-21 19:05:00,82.7,74.0,29.87,WNW,289,0.0,0.0,75,0.00,,,0.00,Wunderground v.1.15,2017-07-21 23:05:00,
2017-07-21 19:11:00,82.2,73.5,29.87,WNW,289,0.0,0.0,75,0.00,,,0.00,Wunderground v.1.15,2017-07-21 23:11:00,
2017-07-21 19:16:00,82.2,74.3,29.87,WNW,289,0.0,0.0,77,0.00,,,0.00,Wunderground v.1.15,2017-07-21 23:16:00,
2017-07-21 19:22:00,82.1,73.8,29.88,WNW,289,0.0,0.0,76,0.00,,,0.00,Wunderground v.1.15,2017-07-21 23:22:00,
2017-07-21 19:27:00,82.7,74.0,29.88,WNW,289,0.0,0.0,75,0.00,,,0.00,Wunderground v.1.15,2017-07-21 23:27:00,
2017-07-21 19:32:00,83.1,74.4,29.88,WNW,289,0.0,0.0,75,0.00,,,0.00,Wunderground v.1.15,2017-07-21 23:32:00,
2017-07-21 19:38:00,83.2,74.4,29.88,WNW,289,0.0,0.0,75,0.00,,,0.00,Wunderground v.1.15,2017-07-21 23:38:00,
2017-07-21 19:43:00,83.1,73.9,29.88,WNW,289,0.0,0.0,74,0.00,,,0.00,Wunderground v.1.15,2017-07-21 23:43:00,
2017-07-21 19:48:00,82.9,74.2,29.88,WNW,289,0.0,0.0,75,0.00,,,0.00,Wunderground v.1.15,2017-07-21 23:48:00,
2017-07-21 19:53:00,82.7,73.6,29.87,WNW,289,0.0,0.0,74,0.00,,,0.00,Wunderground v.1.15,2017-07-21 23:53:00,